sensor_id;sensor_type;location;lat;lon;timestamp;pressure;altitude;pressure_sealevel;temperature;humidity
5062;BME280;2351;50.812;12.872;2024-02-21T00:01:22;98555.50;;;5.28;100.00
5062;BME280;2351;50.812;12.872;2024-02-21T00:03:55;98550.41;;;5.25;100.00
5062;BME280;2351;50.812;12.872;2024-02-21T00:06:27;98543.47;;;5.24;100.00
5062;BME280;2351;50.812;12.872;2024-02-21T00:08:58;98537.34;;;5.24;100.00
5062;BME280;2351;50.812;12.872;2024-02-21T00:11:30;98537.28;;;5.25;100.00
5062;BME280;2351;50.812;12.872;2024-02-21T00:14:02;98536.44;;;5.25;100.00
5062;BME280;2351;50.812;12.872;2024-02-21T00:16:34;98529.47;;;5.24;100.00
5062;BME280;2351;50.812;12.872;2024-02-21T00:19:07;98531.28;;;5.23;100.00
5062;BME280;2351;50.812;12.872;2024-02-21T00:21:38;98534.84;;;5.22;100.00
5062;BME280;2351;50.812;12.872;2024-02-21T00:24:10;98534.91;;;5.21;100.00
5062;BME280;2351;50.812;12.872;2024-02-21T00:26:42;98533.19;;;5.20;100.00
5062;BME280;2351;50.812;12.872;2024-02-21T00:29:13;98521.97;;;5.18;100.00
5062;BME280;2351;50.812;12.872;2024-02-21T00:31:45;98523.81;;;5.16;100.00
5062;BME280;2351;50.812;12.872;2024-02-21T00:34:18;98520.09;;;5.20;100.00
5062;BME280;2351;50.812;12.872;2024-02-21T00:36:50;98518.38;;;5.19;100.00
5062;BME280;2351;50.812;12.872;2024-02-21T00:39:22;98513.13;;;5.19;100.00
5062;BME280;2351;50.812;12.872;2024-02-21T00:41:53;98510.59;;;5.17;100.00
5062;BME280;2351;50.812;12.872;2024-02-21T00:44:25;98508.09;;;5.16;100.00
5062;BME280;2351;50.812;12.872;2024-02-21T00:46:57;98504.69;;;5.13;100.00
5062;BME280;2351;50.812;12.872;2024-02-21T00:49:30;98501.19;;;5.13;100.00
5062;BME280;2351;50.812;12.872;2024-02-21T00:52:01;98504.75;;;5.12;100.00
5062;BME280;2351;50.812;12.872;2024-02-21T00:54:33;98496.97;;;5.10;100.00
5062;BME280;2351;50.812;12.872;2024-02-21T00:57:05;98497.97;;;5.08;100.00
5062;BME280;2351;50.812;12.872;2024-02-21T00:59:37;98487.75;;;5.03;100.00
5062;BME280;2351;50.812;12.872;2024-02-21T01:02:09;98488.06;;;4.97;100.00
5062;BME280;2351;50.812;12.872;2024-02-21T01:04:42;98488.25;;;4.94;100.00
5062;BME280;2351;50.812;12.872;2024-02-21T01:07:13;98484.09;;;4.90;100.00
5062;BME280;2351;50.812;12.872;2024-02-21T01:09:45;98481.66;;;4.87;100.00
5062;BME280;2351;50.812;12.872;2024-02-21T01:12:17;98476.72;;;4.80;100.00
5062;BME280;2351;50.812;12.872;2024-02-21T01:14:48;98478.41;;;4.81;100.00
5062;BME280;2351;50.812;12.872;2024-02-21T01:17:20;98467.88;;;4.83;100.00
5062;BME280;2351;50.812;12.872;2024-02-21T01:19:53;98462.63;;;4.83;100.00
5062;BME280;2351;50.812;12.872;2024-02-21T01:22:25;98460.81;;;4.83;100.00
5062;BME280;2351;50.812;12.872;2024-02-21T01:24:57;98449.31;;;4.86;100.00
5062;BME280;2351;50.812;12.872;2024-02-21T01:27:28;98457.94;;;4.88;100.00
5062;BME280;2351;50.812;12.872;2024-02-21T01:30:00;98451.78;;;4.89;100.00
5062;BME280;2351;50.812;12.872;2024-02-21T01:32:32;98450.00;;;4.90;100.00
5062;BME280;2351;50.812;12.872;2024-02-21T01:35:06;98447.28;;;4.91;100.00
5062;BME280;2351;50.812;12.872;2024-02-21T01:37:38;98446.47;;;4.91;100.00
5062;BME280;2351;50.812;12.872;2024-02-21T01:40:10;98444.59;;;4.93;100.00
5062;BME280;2351;50.812;12.872;2024-02-21T01:42:42;98433.41;;;4.89;100.00
5062;BME280;2351;50.812;12.872;2024-02-21T01:45:14;98429.84;;;4.90;100.00
5062;BME280;2351;50.812;12.872;2024-02-21T01:47:46;98427.31;;;4.89;100.00
5062;BME280;2351;50.812;12.872;2024-02-21T01:50:20;98430.94;;;4.86;100.00
5062;BME280;2351;50.812;12.872;2024-02-21T01:52:54;98422.25;;;4.86;100.00
5062;BME280;2351;50.812;12.872;2024-02-21T01:55:25;98423.19;;;4.85;100.00
5062;BME280;2351;50.812;12.872;2024-02-21T01:57:57;98418.69;;;4.87;100.00
5062;BME280;2351;50.812;12.872;2024-02-21T02:00:29;98413.44;;;4.87;100.00
5062;BME280;2351;50.812;12.872;2024-02-21T02:03:01;98410.94;;;4.85;100.00
5062;BME280;2351;50.812;12.872;2024-02-21T02:05:34;98403.63;;;4.90;100.00
5062;BME280;2351;50.812;12.872;2024-02-21T02:08:06;98406.94;;;4.94;100.00
5062;BME280;2351;50.812;12.872;2024-02-21T02:10:40;98405.16;;;4.94;100.00
5062;BME280;2351;50.812;12.872;2024-02-21T02:13:12;98395.69;;;4.92;100.00
5062;BME280;2351;50.812;12.872;2024-02-21T02:15:45;98396.50;;;4.92;100.00
5062;BME280;2351;50.812;12.872;2024-02-21T02:18:19;98398.03;;;4.96;100.00
5062;BME280;2351;50.812;12.872;2024-02-21T02:20:52;98388.47;;;4.95;100.00
5062;BME280;2351;50.812;12.872;2024-02-21T02:23:25;98391.19;;;4.94;100.00
5062;BME280;2351;50.812;12.872;2024-02-21T02:25:57;98388.59;;;4.94;100.00
5062;BME280;2351;50.812;12.872;2024-02-21T02:28:29;98396.34;;;4.95;100.00
5062;BME280;2351;50.812;12.872;2024-02-21T02:31:01;98380.72;;;4.94;100.00
5062;BME280;2351;50.812;12.872;2024-02-21T02:33:33;98380.88;;;4.91;100.00
5062;BME280;2351;50.812;12.872;2024-02-21T02:36:05;98377.31;;;4.92;100.00
5062;BME280;2351;50.812;12.872;2024-02-21T02:38:38;98368.59;;;4.91;100.00
5062;BME280;2351;50.812;12.872;2024-02-21T02:41:10;98365.03;;;4.92;100.00
5062;BME280;2351;50.812;12.872;2024-02-21T02:43:42;98361.41;;;4.95;100.00
5062;BME280;2351;50.812;12.872;2024-02-21T02:46:13;98363.28;;;4.93;100.00
5062;BME280;2351;50.812;12.872;2024-02-21T02:48:45;98355.56;;;4.90;100.00
5062;BME280;2351;50.812;12.872;2024-02-21T02:51:17;98353.78;;;4.90;100.00
5062;BME280;2351;50.812;12.872;2024-02-21T02:53:50;98354.66;;;4.91;100.00
5062;BME280;2351;50.812;12.872;2024-02-21T02:56:21;98349.31;;;4.92;100.00
5062;BME280;2351;50.812;12.872;2024-02-21T02:58:53;98342.34;;;4.91;100.00
5062;BME280;2351;50.812;12.872;2024-02-21T03:01:25;98334.59;;;4.90;100.00
5062;BME280;2351;50.812;12.872;2024-02-21T03:03:57;98341.44;;;4.92;100.00
5062;BME280;2351;50.812;12.872;2024-02-21T03:06:29;98340.66;;;4.90;100.00
5062;BME280;2351;50.812;12.872;2024-02-21T03:09:02;98346.09;;;4.87;100.00
5062;BME280;2351;50.812;12.872;2024-02-21T03:11:38;98344.22;;;4.89;100.00
5062;BME280;2351;50.812;12.872;2024-02-21T03:14:11;98343.56;;;4.86;100.00
5062;BME280;2351;50.812;12.872;2024-02-21T03:16:42;98339.84;;;4.90;100.00
5062;BME280;2351;50.812;12.872;2024-02-21T03:19:14;98340.00;;;4.87;100.00
5062;BME280;2351;50.812;12.872;2024-02-21T03:21:46;98333.72;;;4.89;100.00
5062;BME280;2351;50.812;12.872;2024-02-21T03:24:19;98336.28;;;4.91;100.00
5062;BME280;2351;50.812;12.872;2024-02-21T03:26:51;98332.72;;;4.92;100.00
5062;BME280;2351;50.812;12.872;2024-02-21T03:29:23;98330.88;;;4.94;100.00
5062;BME280;2351;50.812;12.872;2024-02-21T03:31:54;98328.25;;;4.94;100.00
5062;BME280;2351;50.812;12.872;2024-02-21T03:34:26;98334.25;;;4.96;100.00
5062;BME280;2351;50.812;12.872;2024-02-21T03:36:58;98339.50;;;4.96;100.00
5062;BME280;2351;50.812;12.872;2024-02-21T03:39:32;98327.97;;;4.98;100.00
5062;BME280;2351;50.812;12.872;2024-02-21T03:42:04;98326.28;;;4.97;100.00
5062;BME280;2351;50.812;12.872;2024-02-21T03:44:36;98321.88;;;4.98;100.00
5062;BME280;2351;50.812;12.872;2024-02-21T03:47:08;98325.25;;;5.00;100.00
5062;BME280;2351;50.812;12.872;2024-02-21T03:49:41;98327.03;;;5.00;100.00
5062;BME280;2351;50.812;12.872;2024-02-21T03:52:13;98320.00;;;5.00;100.00
5062;BME280;2351;50.812;12.872;2024-02-21T03:54:46;98328.63;;;5.02;100.00
5062;BME280;2351;50.812;12.872;2024-02-21T03:57:18;98326.94;;;5.01;100.00
5062;BME280;2351;50.812;12.872;2024-02-21T03:59:50;98318.13;;;5.02;100.00
5062;BME280;2351;50.812;12.872;2024-02-21T04:02:22;98326.00;;;5.02;100.00
5062;BME280;2351;50.812;12.872;2024-02-21T04:04:54;98326.00;;;5.02;100.00
5062;BME280;2351;50.812;12.872;2024-02-21T04:07:25;98322.38;;;5.05;100.00
5062;BME280;2351;50.812;12.872;2024-02-21T04:09:58;98322.38;;;5.05;100.00
5062;BME280;2351;50.812;12.872;2024-02-21T04:12:30;98324.25;;;5.03;100.00
5062;BME280;2351;50.812;12.872;2024-02-21T04:15:02;98330.25;;;5.05;100.00
5062;BME280;2351;50.812;12.872;2024-02-21T04:17:34;98331.84;;;5.07;100.00
5062;BME280;2351;50.812;12.872;2024-02-21T04:20:06;98334.47;;;5.07;100.00
5062;BME280;2351;50.812;12.872;2024-02-21T04:22:44;98325.66;;;5.08;100.00
5062;BME280;2351;50.812;12.872;2024-02-21T04:25:18;98330.06;;;5.08;100.00
5062;BME280;2351;50.812;12.872;2024-02-21T04:27:50;98326.59;;;5.07;100.00
5062;BME280;2351;50.812;12.872;2024-02-21T04:30:21;98325.84;;;5.05;100.00
5062;BME280;2351;50.812;12.872;2024-02-21T04:32:53;98320.69;;;5.04;100.00
5062;BME280;2351;50.812;12.872;2024-02-21T04:35:25;98312.06;;;5.02;100.00
5062;BME280;2351;50.812;12.872;2024-02-21T04:37:56;98312.06;;;5.02;100.00
5062;BME280;2351;50.812;12.872;2024-02-21T04:40:29;98317.38;;;5.00;100.00
5062;BME280;2351;50.812;12.872;2024-02-21T04:43:01;98314.75;;;5.00;100.00
5062;BME280;2351;50.812;12.872;2024-02-21T04:45:33;98314.75;;;5.00;100.00
5062;BME280;2351;50.812;12.872;2024-02-21T04:48:05;98316.63;;;4.98;100.00
5062;BME280;2351;50.812;12.872;2024-02-21T04:50:36;98312.22;;;4.98;100.00
5062;BME280;2351;50.812;12.872;2024-02-21T04:53:08;98313.25;;;4.96;100.00
5062;BME280;2351;50.812;12.872;2024-02-21T04:55:41;98302.78;;;4.96;100.00
5062;BME280;2351;50.812;12.872;2024-02-21T04:58:13;98298.53;;;4.93;100.00
5062;BME280;2351;50.812;12.872;2024-02-21T05:00:44;98299.56;;;4.91;100.00
5062;BME280;2351;50.812;12.872;2024-02-21T05:03:16;98298.81;;;4.89;100.00
5062;BME280;2351;50.812;12.872;2024-02-21T05:05:48;98296.34;;;4.86;100.00
5062;BME280;2351;50.812;12.872;2024-02-21T05:08:19;98292.78;;;4.87;100.00
5062;BME280;2351;50.812;12.872;2024-02-21T05:10:52;98291.19;;;4.84;100.00
5062;BME280;2351;50.812;12.872;2024-02-21T05:13:25;98289.41;;;4.85;100.00
5062;BME280;2351;50.812;12.872;2024-02-21T05:15:56;98289.41;;;4.85;100.00
5062;BME280;2351;50.812;12.872;2024-02-21T05:18:32;98293.91;;;4.82;100.00
5062;BME280;2351;50.812;12.872;2024-02-21T05:21:04;98295.75;;;4.80;100.00
5062;BME280;2351;50.812;12.872;2024-02-21T05:23:36;98300.16;;;4.80;100.00
5062;BME280;2351;50.812;12.872;2024-02-21T05:26:11;98288.06;;;4.77;100.00
5062;BME280;2351;50.812;12.872;2024-02-21T05:28:42;98281.97;;;4.77;100.00
5062;BME280;2351;50.812;12.872;2024-02-21T05:31:14;98281.13;;;4.76;100.00
5062;BME280;2351;50.812;12.872;2024-02-21T05:33:46;98282.91;;;4.76;100.00
5062;BME280;2351;50.812;12.872;2024-02-21T05:36:17;98284.69;;;4.75;100.00
5062;BME280;2351;50.812;12.872;2024-02-21T05:38:49;98276.81;;;4.75;100.00
5062;BME280;2351;50.812;12.872;2024-02-21T05:41:22;98268.22;;;4.73;100.00
5062;BME280;2351;50.812;12.872;2024-02-21T05:43:54;98272.53;;;4.74;100.00
5062;BME280;2351;50.812;12.872;2024-02-21T05:46:25;98268.13;;;4.75;100.00
5062;BME280;2351;50.812;12.872;2024-02-21T05:49:03;98262.75;;;4.76;100.00
5062;BME280;2351;50.812;12.872;2024-02-21T05:51:35;98250.41;;;4.78;100.00
5062;BME280;2351;50.812;12.872;2024-02-21T05:54:07;98248.72;;;4.77;100.00
5062;BME280;2351;50.812;12.872;2024-02-21T05:56:44;98257.44;;;4.78;100.00
5062;BME280;2351;50.812;12.872;2024-02-21T05:59:15;98263.63;;;4.77;100.00
5062;BME280;2351;50.812;12.872;2024-02-21T06:01:55;98254.16;;;4.74;100.00
5062;BME280;2351;50.812;12.872;2024-02-21T06:04:28;98253.22;;;4.75;100.00
5062;BME280;2351;50.812;12.872;2024-02-21T06:07:00;98248.81;;;4.76;100.00
5062;BME280;2351;50.812;12.872;2024-02-21T06:09:32;98252.22;;;4.78;100.00
5062;BME280;2351;50.812;12.872;2024-02-21T06:12:05;98255.66;;;4.78;100.00
5062;BME280;2351;50.812;12.872;2024-02-21T06:14:37;98247.91;;;4.77;100.00
5062;BME280;2351;50.812;12.872;2024-02-21T06:17:08;98241.63;;;4.79;100.00
5062;BME280;2351;50.812;12.872;2024-02-21T06:19:41;98238.16;;;4.79;100.00
5062;BME280;2351;50.812;12.872;2024-02-21T06:22:13;98239.09;;;4.78;100.00
5062;BME280;2351;50.812;12.872;2024-02-21T06:24:45;98238.16;;;4.79;100.00
5062;BME280;2351;50.812;12.872;2024-02-21T06:27:18;98233.84;;;4.78;100.00
5062;BME280;2351;50.812;12.872;2024-02-21T06:29:50;98231.56;;;4.72;100.00
5062;BME280;2351;50.812;12.872;2024-02-21T06:32:21;98227.25;;;4.71;100.00
5062;BME280;2351;50.812;12.872;2024-02-21T06:34:53;98220.25;;;4.71;100.00
5062;BME280;2351;50.812;12.872;2024-02-21T06:37:25;98209.59;;;4.74;100.00
5062;BME280;2351;50.812;12.872;2024-02-21T06:39:56;98206.75;;;4.77;100.00
5062;BME280;2351;50.812;12.872;2024-02-21T06:42:29;98203.13;;;4.80;100.00
5062;BME280;2351;50.812;12.872;2024-02-21T06:45:01;98209.22;;;4.80;100.00
5062;BME280;2351;50.812;12.872;2024-02-21T06:47:33;98196.69;;;4.86;100.00
5062;BME280;2351;50.812;12.872;2024-02-21T06:50:05;98201.94;;;4.86;100.00
5062;BME280;2351;50.812;12.872;2024-02-21T06:52:37;98214.00;;;4.88;100.00
5062;BME280;2351;50.812;12.872;2024-02-21T06:55:08;98217.75;;;4.84;100.00
5062;BME280;2351;50.812;12.872;2024-02-21T06:57:42;98215.38;;;4.79;100.00
5062;BME280;2351;50.812;12.872;2024-02-21T07:00:14;98222.25;;;4.82;100.00
5062;BME280;2351;50.812;12.872;2024-02-21T07:02:48;98221.22;;;4.85;100.00
5062;BME280;2351;50.812;12.872;2024-02-21T07:05:19;98228.81;;;4.89;100.00
5062;BME280;2351;50.812;12.872;2024-02-21T07:07:51;98230.91;;;4.98;100.00
5062;BME280;2351;50.812;12.872;2024-02-21T07:10:23;98223.69;;;5.02;100.00
5062;BME280;2351;50.812;12.872;2024-02-21T07:12:56;98226.91;;;5.07;100.00
5062;BME280;2351;50.812;12.872;2024-02-21T07:15:27;98226.53;;;5.13;100.00
5062;BME280;2351;50.812;12.872;2024-02-21T07:18:01;98230.41;;;5.22;100.00
5062;BME280;2351;50.812;12.872;2024-02-21T07:20:33;98234.06;;;5.34;100.00
5062;BME280;2351;50.812;12.872;2024-02-21T07:23:07;98238.75;;;5.43;100.00
5062;BME280;2351;50.812;12.872;2024-02-21T07:25:39;98236.69;;;5.49;100.00
5062;BME280;2351;50.812;12.872;2024-02-21T07:28:12;98243.91;;;5.60;100.00
5062;BME280;2351;50.812;12.872;2024-02-21T07:30:44;98243.44;;;5.67;100.00
5062;BME280;2351;50.812;12.872;2024-02-21T07:33:16;98240.00;;;5.67;100.00
5062;BME280;2351;50.812;12.872;2024-02-21T07:35:48;98236.50;;;5.66;100.00
5062;BME280;2351;50.812;12.872;2024-02-21T07:38:19;98247.56;;;5.71;100.00
5062;BME280;2351;50.812;12.872;2024-02-21T07:40:51;98240.84;;;5.82;100.00
5062;BME280;2351;50.812;12.872;2024-02-21T07:43:24;98246.06;;;5.96;100.00
5062;BME280;2351;50.812;12.872;2024-02-21T07:45:56;98240.31;;;6.18;100.00
5062;BME280;2351;50.812;12.872;2024-02-21T07:48:28;98229.09;;;6.44;100.00
5062;BME280;2351;50.812;12.872;2024-02-21T07:51:00;98226.06;;;6.50;100.00
5062;BME280;2351;50.812;12.872;2024-02-21T07:53:32;98235.09;;;6.46;100.00
5062;BME280;2351;50.812;12.872;2024-02-21T07:56:04;98230.78;;;6.45;100.00
5062;BME280;2351;50.812;12.872;2024-02-21T07:58:37;98239.94;;;6.25;100.00
5062;BME280;2351;50.812;12.872;2024-02-21T08:01:10;98239.38;;;6.20;100.00
5062;BME280;2351;50.812;12.872;2024-02-21T08:03:42;98238.94;;;6.13;100.00
5062;BME280;2351;50.812;12.872;2024-02-21T08:06:14;98240.06;;;6.09;100.00
5062;BME280;2351;50.812;12.872;2024-02-21T08:08:45;98251.63;;;6.06;100.00
5062;BME280;2351;50.812;12.872;2024-02-21T08:11:17;98251.63;;;6.06;100.00
5062;BME280;2351;50.812;12.872;2024-02-21T08:13:50;98250.78;;;6.06;100.00
5062;BME280;2351;50.812;12.872;2024-02-21T08:16:22;98241.28;;;6.03;100.00
5062;BME280;2351;50.812;12.872;2024-02-21T08:18:53;98233.69;;;5.98;100.00
5062;BME280;2351;50.812;12.872;2024-02-21T08:21:25;98230.66;;;5.90;100.00
5062;BME280;2351;50.812;12.872;2024-02-21T08:23:57;98214.91;;;5.90;100.00
5062;BME280;2351;50.812;12.872;2024-02-21T08:26:28;98200.00;;;5.91;100.00
5062;BME280;2351;50.812;12.872;2024-02-21T08:29:02;98193.69;;;5.93;100.00
5062;BME280;2351;50.812;12.872;2024-02-21T08:31:34;98188.47;;;6.75;100.00
5062;BME280;2351;50.812;12.872;2024-02-21T08:34:06;98184.31;;;7.88;100.00
5062;BME280;2351;50.812;12.872;2024-02-21T08:36:38;98176.22;;;8.88;100.00
5062;BME280;2351;50.812;12.872;2024-02-21T08:39:08;98168.38;;;9.33;100.00
5062;BME280;2351;50.812;12.872;2024-02-21T08:41:41;98172.22;;;9.52;100.00
5062;BME280;2351;50.812;12.872;2024-02-21T08:44:14;98171.00;;;9.90;100.00
5062;BME280;2351;50.812;12.872;2024-02-21T08:46:46;98163.63;;;10.05;97.88
5062;BME280;2351;50.812;12.872;2024-02-21T08:49:17;98170.66;;;9.84;95.16
5062;BME280;2351;50.812;12.872;2024-02-21T08:51:49;98164.31;;;9.52;93.35
5062;BME280;2351;50.812;12.872;2024-02-21T08:54:21;98171.97;;;9.44;94.74
5062;BME280;2351;50.812;12.872;2024-02-21T08:56:53;98185.69;;;9.38;93.18
5062;BME280;2351;50.812;12.872;2024-02-21T08:59:27;98180.00;;;9.31;91.71
5062;BME280;2351;50.812;12.872;2024-02-21T09:01:59;98176.03;;;9.14;85.86
5062;BME280;2351;50.812;12.872;2024-02-21T09:04:30;98180.19;;;8.94;86.17
5062;BME280;2351;50.812;12.872;2024-02-21T09:07:02;98179.09;;;8.85;86.25
5062;BME280;2351;50.812;12.872;2024-02-21T09:09:34;98176.22;;;8.88;88.00
5062;BME280;2351;50.812;12.872;2024-02-21T09:12:06;98187.72;;;8.87;87.81
5062;BME280;2351;50.812;12.872;2024-02-21T09:14:39;98188.03;;;8.71;85.07
5062;BME280;2351;50.812;12.872;2024-02-21T09:17:11;98189.22;;;8.42;85.61
5062;BME280;2351;50.812;12.872;2024-02-21T09:19:45;98182.91;;;8.32;86.78
5062;BME280;2351;50.812;12.872;2024-02-21T09:22:16;98181.91;;;8.22;86.34
5062;BME280;2351;50.812;12.872;2024-02-21T09:24:48;98180.50;;;8.05;86.29
5062;BME280;2351;50.812;12.872;2024-02-21T09:27:20;98189.81;;;7.84;86.27
5062;BME280;2351;50.812;12.872;2024-02-21T09:29:54;98173.94;;;7.73;86.48
5062;BME280;2351;50.812;12.872;2024-02-21T09:32:25;98174.06;;;7.59;87.13
5062;BME280;2351;50.812;12.872;2024-02-21T09:34:57;98175.75;;;7.60;88.03
5062;BME280;2351;50.812;12.872;2024-02-21T09:37:29;98166.16;;;7.59;87.98
5062;BME280;2351;50.812;12.872;2024-02-21T09:40:00;98179.34;;;7.59;88.63
5062;BME280;2351;50.812;12.872;2024-02-21T09:42:38;98167.34;;;7.54;88.13
5062;BME280;2351;50.812;12.872;2024-02-21T09:45:18;98176.50;;;7.49;88.75
5062;BME280;2351;50.812;12.872;2024-02-21T09:48:00;98183.34;;;7.51;89.43
5062;BME280;2351;50.812;12.872;2024-02-21T09:50:36;98172.69;;;7.53;89.45
5062;BME280;2351;50.812;12.872;2024-02-21T09:53:12;98188.63;;;7.51;89.00
5062;BME280;2351;50.812;12.872;2024-02-21T09:55:44;98189.34;;;7.53;90.23
5062;BME280;2351;50.812;12.872;2024-02-21T09:58:16;98195.16;;;7.59;90.50
5062;BME280;2351;50.812;12.872;2024-02-21T10:00:50;98185.34;;;7.61;89.87
5062;BME280;2351;50.812;12.872;2024-02-21T10:03:21;98175.44;;;7.51;89.57
5062;BME280;2351;50.812;12.872;2024-02-21T10:05:53;98180.84;;;7.50;90.07
5062;BME280;2351;50.812;12.872;2024-02-21T10:08:25;98175.22;;;7.54;90.83
5062;BME280;2351;50.812;12.872;2024-02-21T10:10:56;98180.91;;;7.61;90.93
5062;BME280;2351;50.812;12.872;2024-02-21T10:13:30;98182.66;;;7.74;91.87
5062;BME280;2351;50.812;12.872;2024-02-21T10:16:05;98181.91;;;7.84;91.66
5062;BME280;2351;50.812;12.872;2024-02-21T10:18:37;98186.41;;;7.95;91.32
5062;BME280;2351;50.812;12.872;2024-02-21T10:21:09;98178.41;;;7.97;90.10
5062;BME280;2351;50.812;12.872;2024-02-21T10:23:44;98175.09;;;8.06;90.06
5062;BME280;2351;50.812;12.872;2024-02-21T10:26:17;98172.03;;;8.12;88.79
5062;BME280;2351;50.812;12.872;2024-02-21T10:28:49;98163.91;;;8.16;88.21
5062;BME280;2351;50.812;12.872;2024-02-21T10:31:24;98159.31;;;8.31;89.34
5062;BME280;2351;50.812;12.872;2024-02-21T10:33:57;98147.28;;;8.51;89.89
5062;BME280;2351;50.812;12.872;2024-02-21T10:36:29;98159.47;;;8.65;88.87
5062;BME280;2351;50.812;12.872;2024-02-21T10:39:01;98144.41;;;8.78;88.75
5062;BME280;2351;50.812;12.872;2024-02-21T10:41:32;98144.09;;;9.06;89.42
5062;BME280;2351;50.812;12.872;2024-02-21T10:44:05;98139.44;;;9.32;88.25
5062;BME280;2351;50.812;12.872;2024-02-21T10:46:38;98135.00;;;9.44;85.85
5062;BME280;2351;50.812;12.872;2024-02-21T10:49:16;98132.00;;;9.48;83.41
5062;BME280;2351;50.812;12.872;2024-02-21T10:51:54;98133.66;;;9.49;83.00
5062;BME280;2351;50.812;12.872;2024-02-21T10:54:39;98125.16;;;9.46;81.91
5062;BME280;2351;50.812;12.872;2024-02-21T10:57:13;98118.31;;;9.43;81.98
5062;BME280;2351;50.812;12.872;2024-02-21T10:59:46;98118.78;;;9.48;82.29
5062;BME280;2351;50.812;12.872;2024-02-21T11:02:20;98111.31;;;9.54;81.88
5062;BME280;2351;50.812;12.872;2024-02-21T11:04:53;98109.75;;;9.62;82.08
5062;BME280;2351;50.812;12.872;2024-02-21T11:07:26;98095.34;;;9.67;80.76
5062;BME280;2351;50.812;12.872;2024-02-21T11:09:58;98097.16;;;9.55;78.60
5062;BME280;2351;50.812;12.872;2024-02-21T11:12:32;98094.13;;;9.71;79.84
5062;BME280;2351;50.812;12.872;2024-02-21T11:15:04;98084.97;;;9.86;78.88
5062;BME280;2351;50.812;12.872;2024-02-21T11:17:38;98083.19;;;10.19;80.02
5062;BME280;2351;50.812;12.872;2024-02-21T11:20:13;98077.25;;;10.27;77.21
5062;BME280;2351;50.812;12.872;2024-02-21T11:22:45;98070.78;;;10.52;77.08
5062;BME280;2351;50.812;12.872;2024-02-21T11:25:21;98074.00;;;10.77;76.52
5062;BME280;2351;50.812;12.872;2024-02-21T11:27:59;98064.25;;;10.78;72.70
5062;BME280;2351;50.812;12.872;2024-02-21T11:30:31;98059.28;;;10.84;72.55
5062;BME280;2351;50.812;12.872;2024-02-21T11:33:06;98050.47;;;10.84;69.85
5062;BME280;2351;50.812;12.872;2024-02-21T11:35:38;98048.59;;;10.96;71.00
5062;BME280;2351;50.812;12.872;2024-02-21T11:38:11;98027.84;;;11.01;69.95
5062;BME280;2351;50.812;12.872;2024-02-21T11:40:46;98023.03;;;11.16;69.93
5062;BME280;2351;50.812;12.872;2024-02-21T11:43:18;98010.47;;;11.08;67.37
5062;BME280;2351;50.812;12.872;2024-02-21T11:45:50;98011.06;;;11.22;68.04
5062;BME280;2351;50.812;12.872;2024-02-21T11:48:24;98005.97;;;11.50;68.35
5062;BME280;2351;50.812;12.872;2024-02-21T11:50:56;98004.75;;;11.64;67.06
5062;BME280;2351;50.812;12.872;2024-02-21T11:53:28;97998.06;;;11.89;67.87
5062;BME280;2351;50.812;12.872;2024-02-21T11:56:01;97990.28;;;12.17;67.45
5062;BME280;2351;50.812;12.872;2024-02-21T11:58:33;97990.09;;;12.28;63.94
5062;BME280;2351;50.812;12.872;2024-02-21T12:01:05;97984.50;;;12.41;65.08
5062;BME280;2351;50.812;12.872;2024-02-21T12:03:39;97980.44;;;12.57;63.69
5062;BME280;2351;50.812;12.872;2024-02-21T12:06:11;97972.78;;;12.44;60.91
5062;BME280;2351;50.812;12.872;2024-02-21T12:08:45;97972.22;;;12.30;60.83
5062;BME280;2351;50.812;12.872;2024-02-21T12:11:19;97961.66;;;12.01;60.11
5062;BME280;2351;50.812;12.872;2024-02-21T12:14:00;97949.91;;;11.94;60.66
5062;BME280;2351;50.812;12.872;2024-02-21T12:16:34;97944.91;;;11.90;59.53
5062;BME280;2351;50.812;12.872;2024-02-21T12:19:07;97944.75;;;11.92;60.39
5062;BME280;2351;50.812;12.872;2024-02-21T12:21:39;97937.34;;;11.66;58.00
5062;BME280;2351;50.812;12.872;2024-02-21T12:24:12;97934.84;;;11.45;59.07
5062;BME280;2351;50.812;12.872;2024-02-21T12:26:44;97930.25;;;11.57;59.60
5062;BME280;2351;50.812;12.872;2024-02-21T12:29:16;97929.66;;;11.73;59.54
5062;BME280;2351;50.812;12.872;2024-02-21T12:31:48;97930.09;;;11.68;59.13
5062;BME280;2351;50.812;12.872;2024-02-21T12:34:21;97921.16;;;11.50;58.71
5062;BME280;2351;50.812;12.872;2024-02-21T12:36:54;97913.34;;;11.48;58.71
5062;BME280;2351;50.812;12.872;2024-02-21T12:39:26;97910.66;;;11.19;58.41
5062;BME280;2351;50.812;12.872;2024-02-21T12:41:59;97893.69;;;11.31;58.99
5062;BME280;2351;50.812;12.872;2024-02-21T12:44:31;97899.25;;;11.18;58.81
5062;BME280;2351;50.812;12.872;2024-02-21T12:47:03;97892.38;;;11.06;59.07
5062;BME280;2351;50.812;12.872;2024-02-21T12:49:36;97896.59;;;11.18;59.85
5062;BME280;2351;50.812;12.872;2024-02-21T12:52:07;97893.41;;;11.34;60.31
5062;BME280;2351;50.812;12.872;2024-02-21T12:54:39;97890.75;;;11.54;60.61
5062;BME280;2351;50.812;12.872;2024-02-21T12:57:11;97887.41;;;11.52;58.94
5062;BME280;2351;50.812;12.872;2024-02-21T12:59:42;97876.81;;;11.52;59.00
5062;BME280;2351;50.812;12.872;2024-02-21T13:02:14;97877.63;;;11.42;58.01
5062;BME280;2351;50.812;12.872;2024-02-21T13:04:47;97867.88;;;11.43;58.11
5062;BME280;2351;50.812;12.872;2024-02-21T13:07:19;97865.38;;;11.41;58.28
5062;BME280;2351;50.812;12.872;2024-02-21T13:09:51;97858.38;;;11.60;59.14
5062;BME280;2351;50.812;12.872;2024-02-21T13:12:22;97849.31;;;11.72;58.69
5062;BME280;2351;50.812;12.872;2024-02-21T13:14:56;97840.50;;;12.01;59.40
5062;BME280;2351;50.812;12.872;2024-02-21T13:17:28;97833.75;;;12.17;58.49
5062;BME280;2351;50.812;12.872;2024-02-21T13:20:04;97835.50;;;12.26;57.84
5062;BME280;2351;50.812;12.872;2024-02-21T13:22:36;97835.13;;;12.21;56.30
5062;BME280;2351;50.812;12.872;2024-02-21T13:25:08;97820.88;;;12.22;56.67
5062;BME280;2351;50.812;12.872;2024-02-21T13:27:40;97823.50;;;12.32;56.91
5062;BME280;2351;50.812;12.872;2024-02-21T13:30:13;97812.31;;;12.28;55.91
5062;BME280;2351;50.812;12.872;2024-02-21T13:32:46;97814.88;;;12.20;55.56
5062;BME280;2351;50.812;12.872;2024-02-21T13:35:19;97807.06;;;12.18;55.89
5062;BME280;2351;50.812;12.872;2024-02-21T13:37:51;97811.13;;;12.13;55.43
5062;BME280;2351;50.812;12.872;2024-02-21T13:40:22;97800.97;;;11.98;55.65